Aérodrome :
LOGIN :

S'inscrire | Disclaimer

   EN    FR    IT 

 










Légende :    VFR   VFR Marginal   IFR   IFR Intensif   IFR Très Intensif
Visi : 
Plafond : 
>= 8 km
>= 3000ft
5 à 8 km
1000 à 3000 ft
1500m à 5 km
500 à 1000 ft
800 à 1500m
200 à 500 ft
< 800m
< 200 ft
Symboles :   Orages  Brouillard  Fortes neiges  Fortes précipitations  Vent > 20 kt
SIGMETs :   Divers  Orages  Givrage  Turbulence  Onde Orograph.  Cendres Volcan.







- Altitude de l'aérodrome : 1411 ft
- Code IATA : ZHI


LSZG - Grenchen

DERNIER METAR :
  • 230820Z 25008KT CAVOK 26/19 Q1019 NOSIG

METARs EXPIRÉS :
  • 230750Z 25009KT CAVOK 26/19 Q1019 NOSIG
  • 230720Z 24009KT CAVOK 26/19 Q1019 NOSIG
  • 230650Z AUTO 24006KT CAVOK 25/18 Q1019
  • 230620Z 24006KT CAVOK 24/19 Q1018 NOSIG
  • 230550Z AUTO 23005KT 9999 NCD 24/19 Q1018

TAF TAF LSZG
Valide du 23 à 06h jusqu'au 23 à 15h UTC


230525Z 2306/2315 VRB03KT 9999 SCT120
TEMPO 2309/2315 26015G25KT SCT080TCU
ATIS : +41 32 396 96 33
Pas de NOTAMs connus pour ce terrain.



MET'MAP, la Météo Aéronautique d'un coup d'oeil ! - Copyright ORBIFLY Décembre 2007 - Disclaimer

ORBIFLY MET'MAP TEAM :

Programmation & Développement : Alexandra Zaïnal
Conception & Développement : Baudouin d'Aumeries
Co-Programmation & Développement : Marc-Olivier Méhu
Soutien technique & logistique : Manuel Goepfert

Contact : metmap@orbifly.com




SOURCES & CREDITS :

   NOAA